Latest Weather Observations for Smithton

IDT60801

Issued at 2:31 pm EDT Sunday 21 December 2014 (issued every 30 minutes, with the page automatically refreshed every 10 minutes)

About weather observations | Map of weather stations | Latest weather observations for TAS | Other Formats
Station Details ID: 091292 Name: SMITHTON AERODROME Lat: -40.83 Lon: 145.08 Height: 7.5 m
Data from the previous 72 hours. | See also: Recent months at Smithton
Date/Time
EDT
Temp
°C
App
Temp
°C
Dew
Point
Rel
Hum
%
Delta-T
°C
Wind Press
QNH
hPa
Press
MSL
hPa
Rain
since 9 am
mm
Dir
 
Spd
km/h
Gust
km/h
Spd
kts
Gust
kts
21/02:30pm 18.3 15.5 14.2 77 2.4 NNE 22 26 12 14 1013.8 - 0.0
21/02:00pm 18.5 15.8 14.6 78 2.3 N 22 32 12 17 1014.1 - 0.0
21/01:30pm 18.0 15.9 13.5 75 2.5 N 17 24 9 13 1014.3 - 0.0
21/01:00pm 18.0 15.2 13.1 73 2.8 N 20 26 11 14 1014.3 - 0.0
21/12:30pm 17.1 15.2 13.0 77 2.3 NW 15 20 8 11 1015.6 - 0.0
21/12:00pm 16.6 14.7 12.9 79 2.1 NNW 15 19 8 10 1015.9 1015.9 0.0
21/11:30am 16.4 15.2 12.8 79 2.0 N 11 13 6 7 1016.0 - 0.0
21/11:00am 16.5 15.6 12.7 78 2.1 N 9 13 5 7 1015.5 - 0.0
21/10:30am 16.5 15.2 12.5 77 2.2 NNW 11 17 6 9 1015.7 - 0.0
21/10:00am 17.1 15.8 12.4 74 2.6 NNW 11 20 6 11 1015.4 - 0.0
21/09:30am 16.0 15.3 12.0 77 2.2 WNW 7 11 4 6 1015.2 - 0.0
21/09:00am 15.5 15.0 11.9 79 2.0 SSW 6 9 3 5 1015.4 1015.4 0.2
21/08:30am 14.7 14.3 12.4 86 1.3 SSW 6 9 3 5 1015.4 - 0.2
21/08:00am 14.4 14.1 12.6 89 1.0 SSW 6 11 3 6 1015.0 - 0.2
21/07:30am 12.0 11.2 11.8 99 0.1 SSW 7 9 4 5 1014.9 - 0.2
21/07:00am 9.5 7.3 9.5 100 0.0 SSW 11 15 6 8 1014.9 - 0.2
21/06:30am 7.8 5.9 7.7 99 0.0 SSW 7 7 4 4 1014.7 - 0.2
21/06:00am 7.8 6.1 7.7 99 0.0 SSW 6 7 3 4 1015.1 1015.1 0.2
21/05:30am 5.8 2.4 5.7 99 0.0 SSW 13 13 7 7 1015.6 - 0.2
21/05:00am 5.3 2.1 5.2 99 0.0 SSW 11 11 6 6 1015.6 - 0.2
21/04:30am 5.7 2.6 5.6 99 0.0 SW 11 13 6 7 1015.1 - 0.2
21/04:00am 5.9 2.9 5.8 99 0.0 SW 11 13 6 7 1014.8 - 0.2
21/03:30am 5.9 3.6 5.8 99 0.0 SW 7 9 4 5 1014.7 - 0.2
21/03:00am 5.8 3.5 5.7 99 0.0 SW 7 9 4 5 1014.9 1014.9 0.2
21/02:30am 7.0 5.1 6.9 99 0.0 SW 6 9 3 5 1015.2 - 0.2
21/02:00am 7.0 6.3 6.9 99 0.0 CALM 0 0 0 0 1015.3 - 0.2
21/01:30am 7.3 5.3 7.2 99 0.0 SW 7 9 4 5 1015.6 - 0.2
21/01:00am 8.1 6.3 8.0 99 0.0 SW 7 7 4 4 1015.9 - 0.2
21/12:30am 8.0 6.1 7.7 98 0.1 SW 7 9 4 5 1016.1 - 0.2
21/12:00am 9.3 7.9 8.8 97 0.2 SW 6 7 3 4 1016.4 1016.4 0.2
 
Date/Time
EDT
Temp
°C
App
Temp
°C
Dew
Point
Rel
Hum
%
Delta-T
°C
Wind Press
QNH
hPa
Press
MSL
hPa
Rain
since 9 am
mm
Dir
 
Spd
km/h
Gust
km/h
Spd
kts
Gust
kts
20/11:30pm 9.5 7.9 8.9 96 0.3 WSW 7 9 4 5 1016.6 - 0.2
20/11:00pm 10.2 8.0 9.4 95 0.4 WSW 11 13 6 7 1016.8 - 0.2
20/10:30pm 10.9 8.1 10.1 95 0.4 WSW 15 17 8 9 1016.9 - 0.2
20/10:00pm 10.9 8.4 9.7 92 0.6 WSW 13 15 7 8 1016.7 - 0.2
20/09:30pm 11.9 9.1 10.1 89 0.9 WSW 15 17 8 9 1016.3 - 0.2
20/09:00pm 12.7 9.9 9.9 83 1.4 WSW 15 17 8 9 1016.0 1016.0 0.2
20/08:30pm 14.4 11.2 10.0 75 2.3 WSW 17 20 9 11 1016.0 - 0.2
20/08:00pm 15.8 12.3 10.1 69 3.0 WSW 19 24 10 13 1016.0 - 0.2
20/07:30pm 16.5 12.5 10.4 67 3.2 WSW 22 30 12 16 1015.9 - 0.2
20/07:00pm 17.5 12.7 10.4 63 3.8 WSW 26 33 14 18 1015.7 - 0.2
20/06:30pm 17.8 13.1 10.7 63 3.8 SW 26 35 14 19 1015.6 - 0.2
20/06:00pm 17.7 12.5 10.3 62 3.9 WSW 28 35 15 19 1015.4 1015.4 0.2
20/05:30pm 17.0 11.9 10.6 66 3.4 SW 28 33 15 18 1015.5 - 0.2
20/05:00pm 19.4 14.1 11.4 60 4.4 WSW 30 41 16 22 1015.6 - 0.2
20/04:30pm 19.6 15.3 11.9 61 4.3 SW 26 35 14 19 1015.6 - 0.2
20/04:00pm 19.6 14.4 11.6 60 4.4 SW 30 44 16 24 1015.7 - 0.2
20/03:30pm 18.7 13.2 10.5 59 4.4 WSW 30 41 16 22 1015.9 - 0.2
20/03:00pm 19.7 12.8 10.4 55 5.0 WSW 37 50 20 27 1016.0 1016.0 0.2
20/02:30pm 20.0 14.8 11.7 59 4.6 SW 30 48 16 26 1015.9 - 0.2
20/02:29pm 19.7 14.2 10.7 56 4.9 SW 30 48 16 26 1015.9 - 0.2
20/02:00pm 19.2 13.3 11.3 60 4.3 WSW 33 46 18 25 1015.9 - 0.2
20/01:30pm 19.7 14.0 11.7 60 4.4 WSW 33 43 18 23 1015.8 - 0.2
20/01:00pm 18.9 13.2 11.7 63 4.0 WSW 33 43 18 23 1015.8 - 0.2
20/12:30pm 19.9 14.8 13.1 65 3.9 SW 32 44 17 24 1016.0 - 0.2
20/12:00pm 18.2 13.0 11.5 65 3.7 SW 30 39 16 21 1016.0 1016.0 0.2
20/11:30am 17.6 13.0 12.3 71 2.9 WSW 28 37 15 20 1016.1 - 0.2
20/11:00am 17.0 12.4 13.5 80 2.0 SW 30 39 16 21 1016.0 - 0.2
20/10:30am 16.9 13.0 14.5 86 1.4 SW 28 41 15 22 1015.8 - 0.2
20/10:00am 16.0 12.2 14.7 92 0.7 W 28 37 15 20 1015.8 - 0.0
20/09:30am 16.4 12.8 15.3 93 0.6 W 28 39 15 21 1015.6 - 0.0
20/09:00am 15.5 12.6 15.0 97 0.3 W 24 32 13 17 1015.5 1015.5 0.6
20/08:30am 14.4 11.9 14.2 99 0.1 W 20 28 11 15 1015.4 - 0.6
20/08:00am 14.1 11.2 13.9 99 0.1 W 22 28 12 15 1015.1 - 0.6
20/07:30am 13.8 11.7 13.6 99 0.1 W 17 24 9 13 1014.9 - 0.4
20/07:00am 13.6 11.8 13.4 99 0.1 W 15 26 8 14 1014.8 - 0.4
20/06:30am 13.6 11.7 13.1 97 0.3 W 15 20 8 11 1014.5 - 0.2
20/06:00am 13.4 10.7 12.9 97 0.3 W 19 28 10 15 1014.3 1014.3 0.2
20/05:30am 13.1 10.7 12.5 96 0.3 W 17 26 9 14 1014.3 - 0.2
20/05:00am 13.0 10.1 12.4 96 0.3 W 19 26 10 14 1014.3 - 0.0
20/04:30am 13.3 10.5 12.5 95 0.4 W 19 30 10 16 1014.4 - 0.0
20/04:00am 13.4 10.3 12.3 93 0.6 W 20 28 11 15 1014.2 - 0.0
20/03:30am 13.7 10.6 12.3 91 0.8 W 20 28 11 15 1014.3 - 0.0
20/03:00am 13.6 10.7 12.2 91 0.8 W 19 26 10 14 1014.7 1014.7 0.0
20/02:30am 13.2 11.1 12.3 94 0.5 W 15 20 8 11 1014.8 - 0.0
20/02:00am 13.3 10.7 12.0 92 0.7 W 17 20 9 11 1015.3 - 0.0
20/01:30am 12.7 11.5 11.6 93 0.6 WNW 9 11 5 6 1015.7 - 0.0
20/01:00am 12.1 11.0 10.8 92 0.7 W 7 9 4 5 1015.8 - 0.0
20/12:30am 12.0 11.0 10.9 93 0.6 W 7 9 4 5 1016.1 - 0.0
20/12:00am 11.5 9.6 10.6 94 0.5 W 11 13 6 7 1016.5 1016.5 0.0
 
Date/Time
EDT
Temp
°C
App
Temp
°C
Dew
Point
Rel
Hum
%
Delta-T
°C
Wind Press
QNH
hPa
Press
MSL
hPa
Rain
since 9 am
mm
Dir
 
Spd
km/h
Gust
km/h
Spd
kts
Gust
kts
19/11:30pm 10.9 8.4 9.8 93 0.6 W 13 15 7 8 1016.7 - 0.0
19/11:00pm 11.3 8.8 9.7 90 0.8 W 13 13 7 7 1017.0 - 0.0
19/10:30pm 11.3 8.9 9.9 91 0.7 WNW 13 15 7 8 1017.3 - 0.0
19/10:00pm 11.7 10.1 10.3 91 0.7 W 9 11 5 6 1017.5 - 0.0
19/09:30pm 11.5 9.8 9.9 90 0.8 W 9 9 5 5 1017.3 - 0.0
19/09:00pm 11.8 10.4 9.7 87 1.1 W 7 9 4 5 1017.3 1017.3 0.0
19/08:30pm 12.4 10.6 9.4 82 1.5 W 9 11 5 6 1017.2 - 0.0
19/08:00pm 12.9 9.5 9.0 77 2.0 W 17 19 9 10 1017.2 - 0.0
19/07:30pm 13.4 9.9 8.9 74 2.3 WSW 17 20 9 11 1016.9 - 0.0
19/07:00pm 13.4 8.9 8.7 73 2.4 SW 22 30 12 16 1016.8 - 0.0
19/06:30pm 14.0 8.9 7.8 66 3.1 SW 24 32 13 17 1016.5 - 0.0
19/06:00pm 14.7 8.3 6.8 59 3.8 WSW 30 39 16 21 1016.2 1016.2 0.0
19/05:30pm 15.6 8.6 6.1 53 4.6 WSW 32 39 17 21 1015.8 - 0.0
19/05:00pm 15.6 8.5 6.3 54 4.5 WSW 33 43 18 23 1015.8 - 0.0
19/04:30pm 16.2 9.3 6.3 52 4.8 WSW 32 52 17 28 1015.8 - 0.0
19/04:24pm 16.2 9.1 5.5 49 5.1 WSW 32 52 17 28 1015.8 - 0.0
19/04:00pm 17.2 10.4 7.0 51 5.1 WSW 32 43 17 23 1015.9 - 0.0
19/03:30pm 16.7 10.1 5.9 49 5.2 WSW 30 43 16 23 1015.8 - 0.0
19/03:00pm 16.8 10.2 6.0 49 5.2 WSW 30 43 16 23 1015.7 1015.7 0.0
19/02:30pm 16.0 10.1 5.9 51 4.9 SW 26 35 14 19 1015.6 - 0.0
19/02:00pm 16.0 9.2 6.7 54 4.6 WSW 32 41 17 22 1015.6 - 0.0
19/01:30pm 16.1 10.2 6.0 51 4.9 SW 26 37 14 20 1015.4 - 0.0
19/01:00pm 17.0 11.1 7.6 54 4.7 WSW 28 41 15 22 1015.4 - 0.0
19/12:30pm 16.9 11.5 7.8 55 4.6 WSW 26 33 14 18 1015.3 - 0.0
19/12:00pm 16.2 9.5 5.5 49 5.1 SW 30 41 16 22 1015.0 1015.0 0.0
19/11:30am 16.7 9.8 7.4 54 4.6 WSW 33 46 18 25 1015.1 - 0.0
19/11:00am 14.6 8.8 6.2 57 4.0 SSW 26 37 14 20 1015.1 - 0.0
19/10:30am 15.9 10.1 7.9 59 4.0 SSW 28 35 15 19 1015.0 - 0.0
19/10:00am 15.0 9.6 7.8 62 3.6 SW 26 37 14 20 1015.0 - 0.0
19/09:30am 15.3 10.6 7.6 60 3.8 SW 22 33 12 18 1014.9 - 0.0
19/09:00am 14.3 8.7 7.1 62 3.5 SW 26 35 14 19 1014.9 1014.9 3.6
19/08:30am 13.5 9.5 8.4 71 2.5 SW 19 26 10 14 1014.5 - 3.6
19/08:00am 12.2 9.5 8.9 80 1.6 SW 13 20 7 11 1014.2 - 3.6
19/07:30am 10.3 9.1 9.5 95 0.4 SSW 6 7 3 4 1013.8 - 3.6
19/07:00am 8.9 7.5 8.8 99 0.0 SSW 6 7 3 4 1013.6 - 3.6
19/06:30am 7.2 6.5 7.1 99 0.0 CALM 0 0 0 0 1013.3 - 3.6
19/06:00am 6.4 5.6 6.3 99 0.0 CALM 0 0 0 0 1012.8 1012.8 3.6
19/05:30am 7.0 4.5 6.7 98 0.1 SSW 9 11 5 6 1012.5 - 3.6
19/05:00am 8.0 5.0 7.6 97 0.2 SSW 13 17 7 9 1012.0 - 3.6
19/04:30am 7.3 4.2 7.2 99 0.0 WSW 13 15 7 8 1011.6 - 3.6
19/04:00am 6.0 3.4 5.9 99 0.0 SW 9 13 5 7 1011.4 - 3.4
19/03:30am 6.5 4.3 6.4 99 0.0 SW 7 9 4 5 1011.1 - 3.4
19/03:00am 6.0 4.3 5.7 98 0.1 S 4 6 2 3 1011.0 1011.0 3.4
19/02:30am 6.6 4.5 6.0 96 0.3 S 6 7 3 4 1010.7 - 3.4
19/02:00am 6.5 4.9 6.4 99 0.0 SW 4 7 2 4 1010.9 - 3.4
19/01:30am 6.4 4.2 6.1 98 0.1 SW 7 9 4 5 1010.7 - 3.4
19/01:00am 7.1 5.5 6.4 95 0.3 SW 4 7 2 4 1010.6 - 3.4
19/12:30am 8.1 5.4 7.2 94 0.4 SW 11 11 6 6 1010.3 - 3.4
19/12:00am 8.4 5.7 7.2 92 0.6 WSW 11 11 6 6 1010.1 1010.1 3.4
 
Date/Time
EDT
Temp
°C
App
Temp
°C
Dew
Point
Rel
Hum
%
Delta-T
°C
Wind Press
QNH
hPa
Press
MSL
hPa
Rain
since 9 am
mm
Dir
 
Spd
km/h
Gust
km/h
Spd
kts
Gust
kts
18/11:30pm 9.7 6.7 7.8 88 0.9 SW 13 17 7 9 1010.0 - 3.4
18/11:00pm 9.2 5.8 7.8 91 0.7 WSW 15 17 8 9 1009.9 - 3.4
18/10:30pm 9.6 6.2 7.7 88 0.9 WSW 15 17 8 9 1009.8 - 3.4
18/10:00pm 9.9 6.5 7.8 87 1.0 WSW 15 19 8 10 1009.7 - 3.4
18/09:30pm 9.8 6.5 7.9 88 0.9 WSW 15 15 8 8 1009.3 - 3.4
18/09:00pm 11.6 7.5 8.5 81 1.5 SW 20 26 11 14 1008.9 1008.9 3.4
18/08:30pm 12.4 8.1 7.9 74 2.2 WSW 20 28 11 15 1008.4 - 3.4
18/08:00pm 13.8 7.6 7.8 67 3.0 WSW 30 37 16 20 1007.9 - 3.4
18/07:30pm 14.6 9.3 8.3 66 3.2 WSW 26 39 14 21 1007.3 - 3.4
18/07:00pm 15.3 9.6 8.5 64 3.4 WSW 28 37 15 20 1006.7 - 3.4
18/06:30pm 15.4 8.6 7.9 61 3.8 WSW 33 41 18 22 1005.9 - 3.4
18/06:00pm 15.8 10.9 9.9 68 3.1 W 26 35 14 19 1005.3 1005.3 3.4
18/05:30pm 15.5 9.9 10.1 70 2.8 W 30 43 16 23 1005.2 - 3.4
18/05:00pm 16.6 11.9 11.9 74 2.6 W 28 35 15 19 1004.8 - 3.4
18/04:30pm 15.9 12.5 13.6 86 1.3 W 24 33 13 18 1004.5 - 3.4
18/04:00pm 16.4 13.3 13.3 82 1.7 WNW 22 28 12 15 1004.3 - 3.2
18/03:30pm 14.8 11.9 12.3 85 1.4 WNW 19 30 10 16 1004.4 - 3.2
18/03:00pm 12.5 9.8 11.6 94 0.5 WNW 17 22 9 12 1004.3 1004.3 3.2

Other Formats:

Comma delimited format used in spreadsheet applications
http://www.bom.gov.au/fwo/IDT60801/IDT60801.94953.axf

JavaScript Object Notation format (JSON) in row-major order
http://www.bom.gov.au/fwo/IDT60801/IDT60801.94953.json